»·PEaware :: N8681W KFHR-KRNT

N8681W :: KFHR-KRNT

FLIGHT INFORMATION

Flight Status: Arrived
Operator: Privately registered:
United States
More flights under this callsign
Pilot: Anonymous 15639 (15639)
Aircraft: CESSNA T210 TURBO CENTURION
(T210)
More flights by this aircraft type
Origin: KFHR Friday Harbor
United States
Destination: KRNT Renton Mun
United States
More flights between these airports :: More routes between these airports
Route: +PAE
File this flight plan on PilotEdge
Remarks:
Altitude:
(Current/Filed)
5,000ft
Speed:
(Current/Filed)
160kts
Departed: 25-Jul-18 08:59 AM
Arrived: 25-Jul-18 09:32 AM
Distance/Time
Traveled:
70nm/0:33
Distance/Time
To Go:
Arrived

Flight Plot

Page will automatically refresh every two minutes.

Flight plan parsing failed; only flown route is shown


Map Options




Map Legend


Flown Route
Filed Route
Departure Airport
Arrival Airport
Navaid (VOR, NDB)
Fix

Horizontal Profiles

Position Reports

Time Latitude Longitude Heading Altitude Ground
Speed
25-Jul-18 08:46 48.525625 -123.026200 87 116ft 0kts
25-Jul-18 08:47 48.525625 -123.026200 87 116ft 0kts
25-Jul-18 08:48 48.525625 -123.026200 87 116ft 0kts
25-Jul-18 08:49 48.525625 -123.026200 87 116ft 0kts
25-Jul-18 08:50 48.525625 -123.026200 87 116ft 0kts
25-Jul-18 08:51 48.525625 -123.026200 87 116ft 0kts
25-Jul-18 08:52 48.525625 -123.026200 87 116ft 0kts
25-Jul-18 08:53 48.525625 -123.026200 87 116ft 0kts
25-Jul-18 08:54 48.525625 -123.026200 87 116ft 0kts
25-Jul-18 08:55 48.525625 -123.026200 87 116ft 0kts
25-Jul-18 08:56 48.525987 -123.025913 354 115ft 9kts
25-Jul-18 08:57 48.526547 -123.025420 87 116ft 0kts
25-Jul-18 08:58 48.526547 -123.025420 87 116ft 0kts
25-Jul-18 08:59 48.526548 -123.025348 89 116ft 2kts
25-Jul-18 09:00 48.518050 -123.023887 176 259ft 82kts
25-Jul-18 09:01 48.490993 -123.024449 189 1030ft 107kts
25-Jul-18 09:02 48.461235 -123.032440 193 1907ft 111kts
25-Jul-18 09:03 48.431170 -123.044091 187 2777ft 113kts
25-Jul-18 09:04 48.400938 -123.058312 195 3613ft 115kts
25-Jul-18 09:05 48.371948 -123.050019 129 4436ft 118kts
25-Jul-18 09:06 48.352296 -123.007400 124 5000ft 138kts
25-Jul-18 09:07 48.328609 -122.955399 129 5049ft 156kts
25-Jul-18 09:08 48.300818 -122.904085 134 5063ft 159kts
25-Jul-18 09:09 48.270656 -122.854976 133 5067ft 160kts
25-Jul-18 09:10 48.240801 -122.805554 133 5067ft 160kts
25-Jul-18 09:11 48.210816 -122.755824 133 5067ft 161kts
25-Jul-18 09:12 48.185840 -122.714452 133 5067ft 161kts
25-Jul-18 09:13 48.155878 -122.664899 133 5076ft 160kts
25-Jul-18 09:14 48.125838 -122.615249 133 5074ft 161kts
25-Jul-18 09:15 48.095710 -122.565626 132 5067ft 161kts
25-Jul-18 09:16 48.065447 -122.515876 132 5061ft 162kts
25-Jul-18 09:17 48.035512 -122.466757 131 5056ft 162kts
25-Jul-18 09:18 48.005169 -122.417059 131 5051ft 162kts
25-Jul-18 09:19 47.974892 -122.367537 131 5049ft 161kts
25-Jul-18 09:20 47.945017 -122.317110 127 4685ft 166kts
25-Jul-18 09:21 47.916795 -122.264302 138 4159ft 166kts
25-Jul-18 09:22 47.877517 -122.233524 167 3572ft 165kts
25-Jul-18 09:23 47.832781 -122.220360 173 2969ft 163kts
25-Jul-18 09:24 47.788062 -122.215597 172 2481ft 157kts
25-Jul-18 09:25 47.745647 -122.204921 164 2070ft 153kts
25-Jul-18 09:26 47.703907 -122.192278 171 1986ft 157kts
25-Jul-18 09:27 47.658980 -122.186377 177 1866ft 165kts
25-Jul-18 09:28 47.612098 -122.185353 181 1573ft 170kts
25-Jul-18 09:29 47.571921 -122.194858 201 1164ft 123kts
25-Jul-18 09:30 47.545052 -122.212793 205 1020ft 99kts
25-Jul-18 09:31 47.521425 -122.220152 171 618ft 85kts
25-Jul-18 09:32 47.497974 -122.216422 173 38ft 76kts
25-Jul-18 09:33 47.493649 -122.217053 356 36ft 9kts
25-Jul-18 09:34 47.494055 -122.217576 90 36ft 0kts
25-Jul-18 09:35 47.494055 -122.217576 90 36ft 0kts
25-Jul-18 09:36 47.494055 -122.217576 90 36ft 0kts

Navigation Log

Ident Type
Flight plan parsing failed, navigation log unavailable